sensor_id;sensor_type;location;lat;lon;timestamp;P1;durP1;ratioP1;P2;durP2;ratioP2
9997;SDS011;5038;53.064;8.624;2023-11-21T00:00:05;27.13;;;18.97;;
9997;SDS011;5038;53.064;8.624;2023-11-21T00:02:38;25.70;;;19.37;;
9997;SDS011;5038;53.064;8.624;2023-11-21T00:05:07;31.73;;;20.27;;
9997;SDS011;5038;53.064;8.624;2023-11-21T00:07:36;30.43;;;19.80;;
9997;SDS011;5038;53.064;8.624;2023-11-21T00:10:07;32.67;;;19.57;;
9997;SDS011;5038;53.064;8.624;2023-11-21T00:12:37;30.23;;;19.63;;
9997;SDS011;5038;53.064;8.624;2023-11-21T00:15:08;31.87;;;21.23;;
9997;SDS011;5038;53.064;8.624;2023-11-21T00:17:38;30.30;;;19.80;;
9997;SDS011;5038;53.064;8.624;2023-11-21T00:20:07;31.60;;;19.57;;
9997;SDS011;5038;53.064;8.624;2023-11-21T00:22:39;25.97;;;18.90;;
9997;SDS011;5038;53.064;8.624;2023-11-21T00:25:09;31.10;;;19.50;;
9997;SDS011;5038;53.064;8.624;2023-11-21T00:27:38;31.13;;;20.77;;
9997;SDS011;5038;53.064;8.624;2023-11-21T00:30:06;29.90;;;19.33;;
9997;SDS011;5038;53.064;8.624;2023-11-21T00:32:35;31.23;;;19.60;;
9997;SDS011;5038;53.064;8.624;2023-11-21T00:35:04;26.63;;;17.90;;
9997;SDS011;5038;53.064;8.624;2023-11-21T00:37:33;28.93;;;18.67;;
9997;SDS011;5038;53.064;8.624;2023-11-21T00:40:01;27.30;;;19.93;;
9997;SDS011;5038;53.064;8.624;2023-11-21T00:42:35;29.03;;;21.00;;
9997;SDS011;5038;53.064;8.624;2023-11-21T00:45:03;29.27;;;20.00;;
9997;SDS011;5038;53.064;8.624;2023-11-21T00:47:32;31.00;;;20.20;;
9997;SDS011;5038;53.064;8.624;2023-11-21T00:50:01;29.30;;;18.70;;
9997;SDS011;5038;53.064;8.624;2023-11-21T00:52:29;29.03;;;19.77;;
9997;SDS011;5038;53.064;8.624;2023-11-21T00:54:57;31.13;;;19.33;;
9997;SDS011;5038;53.064;8.624;2023-11-21T00:57:26;31.47;;;18.90;;
9997;SDS011;5038;53.064;8.624;2023-11-21T00:59:56;31.57;;;20.13;;
9997;SDS011;5038;53.064;8.624;2023-11-21T01:02:24;26.37;;;18.40;;
9997;SDS011;5038;53.064;8.624;2023-11-21T01:04:52;29.77;;;18.83;;
9997;SDS011;5038;53.064;8.624;2023-11-21T01:07:20;31.43;;;20.60;;
9997;SDS011;5038;53.064;8.624;2023-11-21T01:09:49;32.60;;;19.60;;
9997;SDS011;5038;53.064;8.624;2023-11-21T01:12:17;31.13;;;18.00;;
9997;SDS011;5038;53.064;8.624;2023-11-21T01:14:46;29.73;;;17.60;;
9997;SDS011;5038;53.064;8.624;2023-11-21T01:17:15;26.47;;;19.03;;
9997;SDS011;5038;53.064;8.624;2023-11-21T01:19:45;30.53;;;18.30;;
9997;SDS011;5038;53.064;8.624;2023-11-21T01:22:13;28.90;;;19.80;;
9997;SDS011;5038;53.064;8.624;2023-11-21T01:24:42;28.77;;;19.53;;
9997;SDS011;5038;53.064;8.624;2023-11-21T01:27:11;30.57;;;19.30;;
9997;SDS011;5038;53.064;8.624;2023-11-21T01:29:39;29.00;;;19.43;;
9997;SDS011;5038;53.064;8.624;2023-11-21T01:32:07;31.73;;;21.40;;
9997;SDS011;5038;53.064;8.624;2023-11-21T01:34:37;31.47;;;19.10;;
9997;SDS011;5038;53.064;8.624;2023-11-21T01:37:05;29.27;;;19.07;;
9997;SDS011;5038;53.064;8.624;2023-11-21T01:39:34;32.77;;;20.30;;
9997;SDS011;5038;53.064;8.624;2023-11-21T01:42:05;30.80;;;20.60;;
9997;SDS011;5038;53.064;8.624;2023-11-21T01:44:34;30.60;;;21.37;;
9997;SDS011;5038;53.064;8.624;2023-11-21T01:47:02;28.90;;;20.00;;
9997;SDS011;5038;53.064;8.624;2023-11-21T01:49:31;25.60;;;20.07;;
9997;SDS011;5038;53.064;8.624;2023-11-21T01:52:02;29.43;;;19.50;;
9997;SDS011;5038;53.064;8.624;2023-11-21T01:54:31;28.60;;;21.00;;
9997;SDS011;5038;53.064;8.624;2023-11-21T01:57:00;32.80;;;20.90;;
9997;SDS011;5038;53.064;8.624;2023-11-21T01:59:34;31.63;;;22.43;;
9997;SDS011;5038;53.064;8.624;2023-11-21T02:02:04;32.80;;;22.40;;
9997;SDS011;5038;53.064;8.624;2023-11-21T02:04:33;28.50;;;21.40;;
9997;SDS011;5038;53.064;8.624;2023-11-21T02:07:04;33.87;;;22.93;;
9997;SDS011;5038;53.064;8.624;2023-11-21T02:09:32;31.63;;;23.40;;
9997;SDS011;5038;53.064;8.624;2023-11-21T02:12:04;30.97;;;22.93;;
9997;SDS011;5038;53.064;8.624;2023-11-21T02:14:33;33.90;;;23.13;;
9997;SDS011;5038;53.064;8.624;2023-11-21T02:17:03;34.83;;;22.37;;
9997;SDS011;5038;53.064;8.624;2023-11-21T02:19:31;31.70;;;23.00;;
9997;SDS011;5038;53.064;8.624;2023-11-21T02:22:00;30.27;;;21.70;;
9997;SDS011;5038;53.064;8.624;2023-11-21T02:24:34;29.97;;;21.80;;
9997;SDS011;5038;53.064;8.624;2023-11-21T02:27:03;31.23;;;21.63;;
9997;SDS011;5038;53.064;8.624;2023-11-21T02:29:32;27.43;;;21.40;;
9997;SDS011;5038;53.064;8.624;2023-11-21T02:32:01;29.83;;;22.70;;
9997;SDS011;5038;53.064;8.624;2023-11-21T02:34:30;25.60;;;21.17;;
9997;SDS011;5038;53.064;8.624;2023-11-21T02:36:58;32.00;;;22.20;;
9997;SDS011;5038;53.064;8.624;2023-11-21T02:39:26;26.50;;;21.47;;
9997;SDS011;5038;53.064;8.624;2023-11-21T02:41:56;29.50;;;22.57;;
9997;SDS011;5038;53.064;8.624;2023-11-21T02:44:24;28.37;;;21.50;;
9997;SDS011;5038;53.064;8.624;2023-11-21T02:46:52;30.63;;;21.60;;
9997;SDS011;5038;53.064;8.624;2023-11-21T02:49:20;32.07;;;22.10;;
9997;SDS011;5038;53.064;8.624;2023-11-21T02:51:49;25.73;;;20.70;;
9997;SDS011;5038;53.064;8.624;2023-11-21T02:54:17;25.57;;;21.47;;
9997;SDS011;5038;53.064;8.624;2023-11-21T02:56:46;31.10;;;21.77;;
9997;SDS011;5038;53.064;8.624;2023-11-21T02:59:15;28.87;;;23.17;;
9997;SDS011;5038;53.064;8.624;2023-11-21T03:01:44;36.13;;;23.20;;
9997;SDS011;5038;53.064;8.624;2023-11-21T03:04:13;30.60;;;22.27;;
9997;SDS011;5038;53.064;8.624;2023-11-21T03:06:44;30.27;;;23.10;;
9997;SDS011;5038;53.064;8.624;2023-11-21T03:09:12;31.30;;;21.63;;
9997;SDS011;5038;53.064;8.624;2023-11-21T03:11:40;26.60;;;20.90;;
9997;SDS011;5038;53.064;8.624;2023-11-21T03:14:08;28.03;;;22.17;;
9997;SDS011;5038;53.064;8.624;2023-11-21T03:16:39;26.67;;;22.40;;
9997;SDS011;5038;53.064;8.624;2023-11-21T03:19:08;33.27;;;23.47;;
9997;SDS011;5038;53.064;8.624;2023-11-21T03:21:36;32.23;;;23.40;;
9997;SDS011;5038;53.064;8.624;2023-11-21T03:24:05;30.67;;;22.00;;
9997;SDS011;5038;53.064;8.624;2023-11-21T03:26:33;32.67;;;23.00;;
9997;SDS011;5038;53.064;8.624;2023-11-21T03:29:03;39.80;;;24.00;;
9997;SDS011;5038;53.064;8.624;2023-11-21T03:31:32;39.40;;;22.80;;
9997;SDS011;5038;53.064;8.624;2023-11-21T03:34:02;41.40;;;25.47;;
9997;SDS011;5038;53.064;8.624;2023-11-21T03:36:30;39.00;;;23.70;;
9997;SDS011;5038;53.064;8.624;2023-11-21T03:38:58;40.37;;;23.03;;
9997;SDS011;5038;53.064;8.624;2023-11-21T03:41:26;42.47;;;25.30;;
9997;SDS011;5038;53.064;8.624;2023-11-21T03:43:54;45.40;;;25.67;;
9997;SDS011;5038;53.064;8.624;2023-11-21T03:46:23;46.43;;;25.00;;
9997;SDS011;5038;53.064;8.624;2023-11-21T03:48:51;41.83;;;24.80;;
9997;SDS011;5038;53.064;8.624;2023-11-21T03:51:23;44.83;;;26.20;;
9997;SDS011;5038;53.064;8.624;2023-11-21T03:53:51;46.10;;;26.23;;
9997;SDS011;5038;53.064;8.624;2023-11-21T03:56:20;46.60;;;26.77;;
9997;SDS011;5038;53.064;8.624;2023-11-21T03:58:49;51.70;;;27.90;;
9997;SDS011;5038;53.064;8.624;2023-11-21T04:01:20;48.90;;;29.50;;
9997;SDS011;5038;53.064;8.624;2023-11-21T04:03:49;52.80;;;29.20;;
9997;SDS011;5038;53.064;8.624;2023-11-21T04:06:18;51.37;;;28.90;;
9997;SDS011;5038;53.064;8.624;2023-11-21T04:08:48;51.67;;;28.80;;
9997;SDS011;5038;53.064;8.624;2023-11-21T04:11:16;53.20;;;32.33;;
9997;SDS011;5038;53.064;8.624;2023-11-21T04:13:44;56.30;;;30.20;;
9997;SDS011;5038;53.064;8.624;2023-11-21T04:16:13;54.03;;;29.90;;
9997;SDS011;5038;53.064;8.624;2023-11-21T04:18:41;62.37;;;33.67;;
9997;SDS011;5038;53.064;8.624;2023-11-21T04:21:09;66.23;;;35.07;;
9997;SDS011;5038;53.064;8.624;2023-11-21T04:23:38;66.57;;;38.00;;
9997;SDS011;5038;53.064;8.624;2023-11-21T04:26:08;74.70;;;36.90;;
9997;SDS011;5038;53.064;8.624;2023-11-21T04:28:36;67.47;;;37.33;;
9997;SDS011;5038;53.064;8.624;2023-11-21T04:31:04;66.97;;;35.73;;
9997;SDS011;5038;53.064;8.624;2023-11-21T04:33:33;64.00;;;35.77;;
9997;SDS011;5038;53.064;8.624;2023-11-21T04:36:01;54.10;;;31.30;;
9997;SDS011;5038;53.064;8.624;2023-11-21T04:38:30;63.50;;;35.30;;
9997;SDS011;5038;53.064;8.624;2023-11-21T04:40:58;54.90;;;32.47;;
9997;SDS011;5038;53.064;8.624;2023-11-21T04:43:30;68.83;;;37.93;;
9997;SDS011;5038;53.064;8.624;2023-11-21T04:45:58;60.40;;;34.37;;
9997;SDS011;5038;53.064;8.624;2023-11-21T04:48:28;69.43;;;36.60;;
9997;SDS011;5038;53.064;8.624;2023-11-21T04:50:57;60.97;;;37.60;;
9997;SDS011;5038;53.064;8.624;2023-11-21T04:53:25;58.93;;;34.40;;
9997;SDS011;5038;53.064;8.624;2023-11-21T04:55:53;49.80;;;34.23;;
9997;SDS011;5038;53.064;8.624;2023-11-21T04:58:22;55.13;;;34.00;;
9997;SDS011;5038;53.064;8.624;2023-11-21T05:00:51;45.37;;;31.63;;
9997;SDS011;5038;53.064;8.624;2023-11-21T05:03:19;51.17;;;32.50;;
9997;SDS011;5038;53.064;8.624;2023-11-21T05:05:50;45.00;;;28.97;;
9997;SDS011;5038;53.064;8.624;2023-11-21T05:08:18;40.63;;;30.00;;
9997;SDS011;5038;53.064;8.624;2023-11-21T05:10:48;40.57;;;29.00;;
9997;SDS011;5038;53.064;8.624;2023-11-21T05:13:17;31.27;;;21.33;;
9997;SDS011;5038;53.064;8.624;2023-11-21T05:15:46;36.10;;;27.13;;
9997;SDS011;5038;53.064;8.624;2023-11-21T05:18:16;37.43;;;27.07;;
9997;SDS011;5038;53.064;8.624;2023-11-21T05:20:44;45.90;;;31.00;;
9997;SDS011;5038;53.064;8.624;2023-11-21T05:23:14;40.40;;;30.80;;
9997;SDS011;5038;53.064;8.624;2023-11-21T05:25:42;43.40;;;31.93;;
9997;SDS011;5038;53.064;8.624;2023-11-21T05:28:10;44.10;;;33.20;;
9997;SDS011;5038;53.064;8.624;2023-11-21T05:30:38;44.60;;;32.17;;
9997;SDS011;5038;53.064;8.624;2023-11-21T05:33:07;41.87;;;32.57;;
9997;SDS011;5038;53.064;8.624;2023-11-21T05:35:36;45.23;;;32.43;;
9997;SDS011;5038;53.064;8.624;2023-11-21T05:38:05;43.90;;;32.47;;
9997;SDS011;5038;53.064;8.624;2023-11-21T05:40:33;38.53;;;29.63;;
9997;SDS011;5038;53.064;8.624;2023-11-21T05:43:01;40.80;;;30.10;;
9997;SDS011;5038;53.064;8.624;2023-11-21T05:45:29;35.47;;;28.10;;
9997;SDS011;5038;53.064;8.624;2023-11-21T05:47:58;35.00;;;25.53;;
9997;SDS011;5038;53.064;8.624;2023-11-21T05:50:26;28.20;;;23.63;;
9997;SDS011;5038;53.064;8.624;2023-11-21T05:52:56;30.70;;;23.70;;
9997;SDS011;5038;53.064;8.624;2023-11-21T05:55:26;26.33;;;22.30;;
9997;SDS011;5038;53.064;8.624;2023-11-21T05:57:54;26.40;;;20.00;;
9997;SDS011;5038;53.064;8.624;2023-11-21T06:00:22;28.37;;;21.90;;
9997;SDS011;5038;53.064;8.624;2023-11-21T06:02:52;22.97;;;19.90;;
9997;SDS011;5038;53.064;8.624;2023-11-21T06:05:22;23.50;;;20.03;;
9997;SDS011;5038;53.064;8.624;2023-11-21T06:07:52;22.73;;;19.90;;
9997;SDS011;5038;53.064;8.624;2023-11-21T06:10:24;19.50;;;17.07;;
9997;SDS011;5038;53.064;8.624;2023-11-21T06:12:52;21.30;;;16.53;;
9997;SDS011;5038;53.064;8.624;2023-11-21T06:15:21;17.47;;;15.67;;
9997;SDS011;5038;53.064;8.624;2023-11-21T06:17:50;17.97;;;15.97;;
9997;SDS011;5038;53.064;8.624;2023-11-21T06:20:20;16.67;;;14.47;;
9997;SDS011;5038;53.064;8.624;2023-11-21T06:22:49;17.20;;;14.53;;
9997;SDS011;5038;53.064;8.624;2023-11-21T06:25:18;18.07;;;16.13;;
9997;SDS011;5038;53.064;8.624;2023-11-21T06:27:48;16.87;;;14.73;;
9997;SDS011;5038;53.064;8.624;2023-11-21T06:30:18;16.40;;;14.70;;
9997;SDS011;5038;53.064;8.624;2023-11-21T06:32:46;17.70;;;14.00;;
9997;SDS011;5038;53.064;8.624;2023-11-21T06:35:15;15.77;;;14.17;;
9997;SDS011;5038;53.064;8.624;2023-11-21T06:37:44;15.90;;;14.23;;
9997;SDS011;5038;53.064;8.624;2023-11-21T06:40:16;14.50;;;13.07;;
9997;SDS011;5038;53.064;8.624;2023-11-21T06:42:45;15.83;;;14.23;;
9997;SDS011;5038;53.064;8.624;2023-11-21T06:45:16;14.87;;;13.37;;
9997;SDS011;5038;53.064;8.624;2023-11-21T06:47:44;15.43;;;13.93;;
9997;SDS011;5038;53.064;8.624;2023-11-21T06:50:13;16.10;;;14.50;;
9997;SDS011;5038;53.064;8.624;2023-11-21T06:52:42;16.00;;;14.50;;
9997;SDS011;5038;53.064;8.624;2023-11-21T06:55:10;16.47;;;14.77;;
9997;SDS011;5038;53.064;8.624;2023-11-21T06:57:39;15.87;;;14.27;;
9997;SDS011;5038;53.064;8.624;2023-11-21T07:00:08;15.77;;;14.27;;
9997;SDS011;5038;53.064;8.624;2023-11-21T07:02:39;16.43;;;14.63;;
9997;SDS011;5038;53.064;8.624;2023-11-21T07:05:07;16.60;;;14.90;;
9997;SDS011;5038;53.064;8.624;2023-11-21T07:07:36;16.47;;;14.50;;
9997;SDS011;5038;53.064;8.624;2023-11-21T07:10:05;14.43;;;13.03;;
9997;SDS011;5038;53.064;8.624;2023-11-21T07:12:34;17.00;;;15.20;;
9997;SDS011;5038;53.064;8.624;2023-11-21T07:15:02;16.87;;;15.27;;
9997;SDS011;5038;53.064;8.624;2023-11-21T07:17:35;17.77;;;15.87;;
9997;SDS011;5038;53.064;8.624;2023-11-21T07:20:08;16.67;;;15.00;;
9997;SDS011;5038;53.064;8.624;2023-11-21T07:22:38;17.97;;;16.07;;
9997;SDS011;5038;53.064;8.624;2023-11-21T07:25:07;17.23;;;15.57;;
9997;SDS011;5038;53.064;8.624;2023-11-21T07:27:36;17.33;;;15.73;;
9997;SDS011;5038;53.064;8.624;2023-11-21T07:30:05;18.17;;;16.37;;
9997;SDS011;5038;53.064;8.624;2023-11-21T07:32:36;16.97;;;15.17;;
9997;SDS011;5038;53.064;8.624;2023-11-21T07:35:07;16.80;;;15.03;;
9997;SDS011;5038;53.064;8.624;2023-11-21T07:37:37;17.13;;;15.50;;
9997;SDS011;5038;53.064;8.624;2023-11-21T07:40:06;19.30;;;16.97;;
9997;SDS011;5038;53.064;8.624;2023-11-21T07:42:36;18.63;;;16.93;;
9997;SDS011;5038;53.064;8.624;2023-11-21T07:45:05;16.80;;;15.20;;
9997;SDS011;5038;53.064;8.624;2023-11-21T07:47:34;17.07;;;15.37;;
9997;SDS011;5038;53.064;8.624;2023-11-21T07:50:04;16.53;;;15.03;;
9997;SDS011;5038;53.064;8.624;2023-11-21T07:52:35;16.87;;;15.27;;
9997;SDS011;5038;53.064;8.624;2023-11-21T07:55:03;17.17;;;15.57;;
9997;SDS011;5038;53.064;8.624;2023-11-21T07:57:34;16.10;;;14.60;;
9997;SDS011;5038;53.064;8.624;2023-11-21T08:00:02;17.80;;;16.13;;
9997;SDS011;5038;53.064;8.624;2023-11-21T08:02:37;18.20;;;16.50;;
9997;SDS011;5038;53.064;8.624;2023-11-21T08:05:09;17.57;;;15.77;;
9997;SDS011;5038;53.064;8.624;2023-11-21T08:07:51;18.30;;;16.40;;
9997;SDS011;5038;53.064;8.624;2023-11-21T08:10:19;18.07;;;16.30;;
9997;SDS011;5038;53.064;8.624;2023-11-21T08:12:48;17.33;;;15.70;;
9997;SDS011;5038;53.064;8.624;2023-11-21T08:15:17;17.20;;;15.53;;
9997;SDS011;5038;53.064;8.624;2023-11-21T08:17:46;18.60;;;16.90;;
9997;SDS011;5038;53.064;8.624;2023-11-21T08:20:15;16.60;;;14.90;;
9997;SDS011;5038;53.064;8.624;2023-11-21T08:22:44;18.67;;;16.77;;
9997;SDS011;5038;53.064;8.624;2023-11-21T08:25:15;17.17;;;15.57;;
9997;SDS011;5038;53.064;8.624;2023-11-21T08:27:46;18.27;;;16.47;;
9997;SDS011;5038;53.064;8.624;2023-11-21T08:30:14;17.27;;;15.50;;
9997;SDS011;5038;53.064;8.624;2023-11-21T08:32:45;16.60;;;15.00;;
9997;SDS011;5038;53.064;8.624;2023-11-21T08:35:13;16.67;;;14.83;;
9997;SDS011;5038;53.064;8.624;2023-11-21T08:37:42;17.57;;;15.97;;
9997;SDS011;5038;53.064;8.624;2023-11-21T08:40:11;17.63;;;16.00;;
9997;SDS011;5038;53.064;8.624;2023-11-21T08:42:44;17.90;;;16.23;;
9997;SDS011;5038;53.064;8.624;2023-11-21T08:45:13;17.20;;;15.40;;
9997;SDS011;5038;53.064;8.624;2023-11-21T08:47:44;17.30;;;15.50;;
9997;SDS011;5038;53.064;8.624;2023-11-21T08:50:13;16.57;;;15.03;;
9997;SDS011;5038;53.064;8.624;2023-11-21T08:52:42;17.20;;;15.57;;
9997;SDS011;5038;53.064;8.624;2023-11-21T08:55:12;18.63;;;16.73;;
9997;SDS011;5038;53.064;8.624;2023-11-21T08:57:40;18.80;;;16.90;;
9997;SDS011;5038;53.064;8.624;2023-11-21T09:00:13;17.57;;;15.50;;
9997;SDS011;5038;53.064;8.624;2023-11-21T09:02:44;16.63;;;15.13;;
9997;SDS011;5038;53.064;8.624;2023-11-21T09:05:13;18.67;;;16.67;;
9997;SDS011;5038;53.064;8.624;2023-11-21T09:07:43;17.13;;;14.83;;
9997;SDS011;5038;53.064;8.624;2023-11-21T09:10:12;17.60;;;15.93;;
9997;SDS011;5038;53.064;8.624;2023-11-21T09:12:41;18.87;;;17.07;;
9997;SDS011;5038;53.064;8.624;2023-11-21T09:15:10;20.00;;;15.37;;
9997;SDS011;5038;53.064;8.624;2023-11-21T09:17:40;16.87;;;15.27;;
9997;SDS011;5038;53.064;8.624;2023-11-21T09:20:09;18.43;;;16.37;;
9997;SDS011;5038;53.064;8.624;2023-11-21T09:22:38;16.13;;;14.60;;
9997;SDS011;5038;53.064;8.624;2023-11-21T09:25:07;16.83;;;15.23;;
9997;SDS011;5038;53.064;8.624;2023-11-21T09:27:35;18.07;;;16.33;;
9997;SDS011;5038;53.064;8.624;2023-11-21T09:30:04;17.97;;;16.13;;
9997;SDS011;5038;53.064;8.624;2023-11-21T09:32:36;18.23;;;16.63;;
9997;SDS011;5038;53.064;8.624;2023-11-21T09:35:06;17.60;;;15.80;;
9997;SDS011;5038;53.064;8.624;2023-11-21T09:37:35;17.60;;;15.73;;
9997;SDS011;5038;53.064;8.624;2023-11-21T09:40:05;18.23;;;16.37;;
9997;SDS011;5038;53.064;8.624;2023-11-21T09:42:40;17.23;;;15.43;;
9997;SDS011;5038;53.064;8.624;2023-11-21T09:45:13;18.70;;;16.70;;
9997;SDS011;5038;53.064;8.624;2023-11-21T09:47:46;17.93;;;16.07;;
9997;SDS011;5038;53.064;8.624;2023-11-21T09:50:16;17.47;;;15.77;;
9997;SDS011;5038;53.064;8.624;2023-11-21T09:52:49;17.83;;;16.20;;
9997;SDS011;5038;53.064;8.624;2023-11-21T09:55:24;18.73;;;16.73;;
9997;SDS011;5038;53.064;8.624;2023-11-21T09:57:56;20.63;;;18.67;;
9997;SDS011;5038;53.064;8.624;2023-11-21T10:00:25;17.87;;;16.07;;
9997;SDS011;5038;53.064;8.624;2023-11-21T10:02:54;18.87;;;17.00;;
9997;SDS011;5038;53.064;8.624;2023-11-21T10:05:27;17.50;;;15.90;;
9997;SDS011;5038;53.064;8.624;2023-11-21T10:07:56;17.67;;;16.07;;
9997;SDS011;5038;53.064;8.624;2023-11-21T10:10:25;16.93;;;15.33;;
9997;SDS011;5038;53.064;8.624;2023-11-21T10:12:56;17.67;;;15.97;;
9997;SDS011;5038;53.064;8.624;2023-11-21T10:15:29;17.27;;;15.60;;
9997;SDS011;5038;53.064;8.624;2023-11-21T10:18:04;17.43;;;15.63;;
9997;SDS011;5038;53.064;8.624;2023-11-21T10:20:37;16.47;;;14.87;;
9997;SDS011;5038;53.064;8.624;2023-11-21T10:23:05;16.07;;;14.57;;
9997;SDS011;5038;53.064;8.624;2023-11-21T10:25:34;16.90;;;15.30;;
9997;SDS011;5038;53.064;8.624;2023-11-21T10:28:03;16.30;;;14.70;;
9997;SDS011;5038;53.064;8.624;2023-11-21T10:30:33;15.33;;;14.00;;
9997;SDS011;5038;53.064;8.624;2023-11-21T10:33:03;16.43;;;14.83;;
9997;SDS011;5038;53.064;8.624;2023-11-21T10:35:41;16.00;;;14.50;;
9997;SDS011;5038;53.064;8.624;2023-11-21T10:38:13;15.57;;;14.17;;
9997;SDS011;5038;53.064;8.624;2023-11-21T10:40:42;16.50;;;14.80;;
9997;SDS011;5038;53.064;8.624;2023-11-21T10:43:13;16.70;;;15.20;;
9997;SDS011;5038;53.064;8.624;2023-11-21T10:45:42;15.10;;;13.73;;
9997;SDS011;5038;53.064;8.624;2023-11-21T10:48:12;15.10;;;13.63;;
9997;SDS011;5038;53.064;8.624;2023-11-21T10:50:45;15.37;;;13.97;;
9997;SDS011;5038;53.064;8.624;2023-11-21T10:53:13;15.47;;;14.07;;
9997;SDS011;5038;53.064;8.624;2023-11-21T10:55:42;16.10;;;14.50;;
9997;SDS011;5038;53.064;8.624;2023-11-21T10:58:13;15.43;;;14.00;;
9997;SDS011;5038;53.064;8.624;2023-11-21T11:00:41;14.57;;;13.07;;
9997;SDS011;5038;53.064;8.624;2023-11-21T11:03:12;15.10;;;13.70;;
9997;SDS011;5038;53.064;8.624;2023-11-21T11:05:44;15.27;;;13.77;;
9997;SDS011;5038;53.064;8.624;2023-11-21T11:08:19;14.77;;;13.50;;
9997;SDS011;5038;53.064;8.624;2023-11-21T11:10:54;15.90;;;14.50;;
9997;SDS011;5038;53.064;8.624;2023-11-21T11:13:23;15.70;;;14.20;;
9997;SDS011;5038;53.064;8.624;2023-11-21T11:15:53;14.37;;;13.07;;
9997;SDS011;5038;53.064;8.624;2023-11-21T11:18:28;13.93;;;12.63;;
9997;SDS011;5038;53.064;8.624;2023-11-21T11:21:00;14.57;;;13.17;;
9997;SDS011;5038;53.064;8.624;2023-11-21T11:23:39;14.57;;;13.37;;
9997;SDS011;5038;53.064;8.624;2023-11-21T11:26:19;13.13;;;11.93;;
9997;SDS011;5038;53.064;8.624;2023-11-21T11:29:01;13.57;;;12.37;;
9997;SDS011;5038;53.064;8.624;2023-11-21T11:31:37;14.93;;;13.43;;
9997;SDS011;5038;53.064;8.624;2023-11-21T11:34:20;14.60;;;13.30;;
9997;SDS011;5038;53.064;8.624;2023-11-21T11:37:01;17.57;;;15.87;;
9997;SDS011;5038;53.064;8.624;2023-11-21T11:39:35;17.50;;;15.97;;
9997;SDS011;5038;53.064;8.624;2023-11-21T11:42:05;14.93;;;13.50;;
9997;SDS011;5038;53.064;8.624;2023-11-21T11:47:23;15.07;;;13.77;;
9997;SDS011;5038;53.064;8.624;2023-11-21T11:49:59;15.37;;;13.77;;
9997;SDS011;5038;53.064;8.624;2023-11-21T11:52:39;14.17;;;12.67;;
9997;SDS011;5038;53.064;8.624;2023-11-21T11:55:09;15.20;;;13.80;;
9997;SDS011;5038;53.064;8.624;2023-11-21T11:57:39;16.03;;;14.63;;
9997;SDS011;5038;53.064;8.624;2023-11-21T12:00:09;14.37;;;13.17;;
9997;SDS011;5038;53.064;8.624;2023-11-21T12:02:43;14.30;;;13.07;;
9997;SDS011;5038;53.064;8.624;2023-11-21T12:05:14;14.47;;;13.27;;
9997;SDS011;5038;53.064;8.624;2023-11-21T12:07:50;13.20;;;12.00;;
9997;SDS011;5038;53.064;8.624;2023-11-21T12:10:21;15.00;;;13.50;;
9997;SDS011;5038;53.064;8.624;2023-11-21T12:12:53;14.20;;;12.90;;
9997;SDS011;5038;53.064;8.624;2023-11-21T12:15:22;12.97;;;11.80;;
9997;SDS011;5038;53.064;8.624;2023-11-21T12:17:51;12.67;;;11.57;;
9997;SDS011;5038;53.064;8.624;2023-11-21T12:20:21;11.43;;;10.43;;
9997;SDS011;5038;53.064;8.624;2023-11-21T12:22:51;10.90;;;9.87;;
9997;SDS011;5038;53.064;8.624;2023-11-21T12:25:20;12.57;;;11.47;;
9997;SDS011;5038;53.064;8.624;2023-11-21T12:27:50;12.27;;;11.17;;
9997;SDS011;5038;53.064;8.624;2023-11-21T12:30:19;11.67;;;10.73;;
9997;SDS011;5038;53.064;8.624;2023-11-21T12:32:49;10.70;;;9.80;;
9997;SDS011;5038;53.064;8.624;2023-11-21T12:35:19;9.40;;;8.60;;
9997;SDS011;5038;53.064;8.624;2023-11-21T12:37:48;9.80;;;8.80;;
9997;SDS011;5038;53.064;8.624;2023-11-21T12:40:20;9.43;;;8.57;;
9997;SDS011;5038;53.064;8.624;2023-11-21T12:42:51;8.43;;;7.60;;
9997;SDS011;5038;53.064;8.624;2023-11-21T12:45:20;8.53;;;7.73;;
9997;SDS011;5038;53.064;8.624;2023-11-21T12:47:54;8.00;;;7.20;;
9997;SDS011;5038;53.064;8.624;2023-11-21T12:50:26;14.90;;;7.33;;
9997;SDS011;5038;53.064;8.624;2023-11-21T12:53:00;7.00;;;6.30;;
9997;SDS011;5038;53.064;8.624;2023-11-21T12:55:30;7.97;;;7.27;;
9997;SDS011;5038;53.064;8.624;2023-11-21T12:58:00;7.67;;;6.97;;
9997;SDS011;5038;53.064;8.624;2023-11-21T13:00:36;6.60;;;6.00;;
9997;SDS011;5038;53.064;8.624;2023-11-21T13:03:07;7.37;;;6.70;;
9997;SDS011;5038;53.064;8.624;2023-11-21T13:05:37;7.20;;;6.57;;
9997;SDS011;5038;53.064;8.624;2023-11-21T13:08:11;7.73;;;7.03;;
9997;SDS011;5038;53.064;8.624;2023-11-21T13:10:40;9.40;;;7.53;;
9997;SDS011;5038;53.064;8.624;2023-11-21T13:13:13;9.13;;;8.23;;
9997;SDS011;5038;53.064;8.624;2023-11-21T13:15:51;10.23;;;8.80;;
9997;SDS011;5038;53.064;8.624;2023-11-21T13:18:22;9.37;;;8.57;;
9997;SDS011;5038;53.064;8.624;2023-11-21T13:20:51;8.27;;;7.47;;
9997;SDS011;5038;53.064;8.624;2023-11-21T13:23:22;8.73;;;7.83;;
9997;SDS011;5038;53.064;8.624;2023-11-21T13:25:51;8.70;;;7.80;;
9997;SDS011;5038;53.064;8.624;2023-11-21T13:28:30;9.43;;;8.53;;
9997;SDS011;5038;53.064;8.624;2023-11-21T13:31:00;9.37;;;8.47;;
9997;SDS011;5038;53.064;8.624;2023-11-21T13:33:36;7.97;;;7.30;;
9997;SDS011;5038;53.064;8.624;2023-11-21T13:36:06;8.30;;;7.50;;
9997;SDS011;5038;53.064;8.624;2023-11-21T13:38:38;8.53;;;7.70;;
9997;SDS011;5038;53.064;8.624;2023-11-21T13:41:10;9.47;;;8.67;;
9997;SDS011;5038;53.064;8.624;2023-11-21T13:43:40;7.57;;;6.80;;
9997;SDS011;5038;53.064;8.624;2023-11-21T13:46:12;8.80;;;7.90;;
9997;SDS011;5038;53.064;8.624;2023-11-21T13:48:44;7.60;;;6.63;;
9997;SDS011;5038;53.064;8.624;2023-11-21T13:51:17;7.57;;;5.77;;
9997;SDS011;5038;53.064;8.624;2023-11-21T13:53:48;5.53;;;5.03;;
9997;SDS011;5038;53.064;8.624;2023-11-21T13:56:19;7.53;;;5.10;;
9997;SDS011;5038;53.064;8.624;2023-11-21T13:58:51;6.53;;;5.83;;
9997;SDS011;5038;53.064;8.624;2023-11-21T14:01:21;6.77;;;6.07;;
9997;SDS011;5038;53.064;8.624;2023-11-21T14:04:20;8.13;;;6.63;;
9997;SDS011;5038;53.064;8.624;2023-11-21T14:07:02;6.80;;;6.20;;
9997;SDS011;5038;53.064;8.624;2023-11-21T14:09:48;7.20;;;6.60;;
9997;SDS011;5038;53.064;8.624;2023-11-21T14:12:16;5.80;;;5.30;;
9997;SDS011;5038;53.064;8.624;2023-11-21T14:14:45;6.00;;;5.50;;
9997;SDS011;5038;53.064;8.624;2023-11-21T14:17:14;7.20;;;6.60;;
9997;SDS011;5038;53.064;8.624;2023-11-21T14:19:42;5.50;;;5.10;;
9997;SDS011;5038;53.064;8.624;2023-11-21T14:22:11;10.17;;;9.27;;
9997;SDS011;5038;53.064;8.624;2023-11-21T14:24:39;14.70;;;13.17;;
9997;SDS011;5038;53.064;8.624;2023-11-21T14:27:13;40.87;;;36.57;;
9997;SDS011;5038;53.064;8.624;2023-11-21T14:29:42;22.33;;;20.07;;
9997;SDS011;5038;53.064;8.624;2023-11-21T14:32:12;13.53;;;12.23;;
9997;SDS011;5038;53.064;8.624;2023-11-21T14:34:40;9.73;;;8.93;;
9997;SDS011;5038;53.064;8.624;2023-11-21T14:37:12;7.13;;;6.53;;
9997;SDS011;5038;53.064;8.624;2023-11-21T14:39:40;6.97;;;6.37;;
9997;SDS011;5038;53.064;8.624;2023-11-21T14:42:13;6.50;;;5.87;;
9997;SDS011;5038;53.064;8.624;2023-11-21T14:44:42;6.63;;;6.03;;
9997;SDS011;5038;53.064;8.624;2023-11-21T14:47:10;10.60;;;9.60;;
9997;SDS011;5038;53.064;8.624;2023-11-21T14:49:43;10.90;;;10.00;;
9997;SDS011;5038;53.064;8.624;2023-11-21T14:52:22;9.90;;;9.10;;
9997;SDS011;5038;53.064;8.624;2023-11-21T14:55:01;8.10;;;7.33;;
9997;SDS011;5038;53.064;8.624;2023-11-21T14:57:57;8.83;;;8.13;;
9997;SDS011;5038;53.064;8.624;2023-11-21T15:00:30;8.17;;;7.47;;
9997;SDS011;5038;53.064;8.624;2023-11-21T15:03:12;8.50;;;7.73;;
9997;SDS011;5038;53.064;8.624;2023-11-21T15:06:01;7.93;;;7.20;;
9997;SDS011;5038;53.064;8.624;2023-11-21T15:08:48;5.83;;;5.33;;
9997;SDS011;5038;53.064;8.624;2023-11-21T15:11:23;5.13;;;4.73;;
9997;SDS011;5038;53.064;8.624;2023-11-21T15:13:58;5.00;;;4.60;;